Latest Weather Observations for Bedout Island

IDW60801

Issued at 3:35 pm WST Friday 22 August 2014 (issued every 30 minutes, with the page automatically refreshed every 10 minutes)

About weather observations | Map of weather stations | Latest weather observations for WA | Other Formats
Station Details ID: 004100 Name: BEDOUT ISLAND Lat: -19.59 Lon: 119.10 Height: 8.6 m
Data from the previous 72 hours. | See also: Recent months for locations in Western Australia
Date/Time
WST
Temp
°C
App
Temp
°C
Dew
Point
Rel
Hum
%
Delta-T
°C
Wind Press
QNH
hPa
Press
MSL
hPa
Rain
since 9 am
mm
Dir
 
Spd
km/h
Gust
km/h
Spd
kts
Gust
kts
22/03:30pm 26.1 24.8 13.6 46 7.4 NNE 13 15 7 8 1014.2 - -
22/03:00pm 26.0 24.3 13.5 46 7.3 NE 15 17 8 9 1014.3 1014.2 -
22/02:30pm 27.0 26.8 15.7 50 6.9 NE 11 13 6 7 1014.5 - -
22/02:00pm 26.3 26.1 14.7 48 7.0 E 9 11 5 6 1014.5 - -
22/01:30pm 26.1 25.9 14.6 49 6.9 E 9 9 5 5 1014.7 - -
22/01:00pm 25.5 25.0 13.7 48 6.9 E 9 11 5 6 1015.2 - -
22/12:30pm 25.8 25.1 14.3 49 6.8 E 11 13 6 7 1015.6 - -
22/12:00pm 25.9 25.0 13.7 47 7.2 ESE 11 11 6 6 1016.0 1015.9 -
22/11:30am 25.4 24.1 13.6 48 6.9 ESE 13 13 7 7 1016.4 - -
22/11:00am 25.5 24.0 13.0 46 7.3 ESE 13 15 7 8 1016.8 - -
22/10:30am 25.0 23.3 12.6 46 7.1 ESE 13 17 7 9 1017.1 - -
22/10:00am 24.3 22.7 12.9 49 6.6 SE 13 17 7 9 1017.3 - -
22/09:30am 23.7 22.1 12.7 50 6.3 SSE 13 15 7 8 1017.5 - -
22/09:00am 22.9 21.6 13.7 56 5.3 SSE 13 15 7 8 1017.4 1017.3 -
22/08:30am 21.8 20.5 14.7 64 4.2 S 15 17 8 9 1017.3 - -
22/08:00am 21.1 19.5 15.0 68 3.6 S 17 20 9 11 1017.1 - -
22/07:30am 20.0 18.7 15.8 77 2.5 S 17 20 9 11 1016.9 - -
22/07:00am 19.5 18.8 16.3 82 1.9 S 15 17 8 9 1016.6 - -
22/06:30am 18.9 17.9 15.6 81 1.9 S 15 17 8 9 1016.2 - -
22/06:00am 19.0 17.4 15.1 78 2.3 S 17 20 9 11 1016.0 1015.9 -
22/05:30am 19.1 17.3 15.6 80 2.1 SSW 19 20 10 11 1015.6 - -
22/05:00am 19.6 18.1 16.3 81 2.0 SSW 19 22 10 12 1015.2 - -
22/04:30am 19.6 17.7 16.6 83 1.8 SSW 22 26 12 14 1014.9 - -
22/04:00am 19.5 18.2 17.3 87 1.3 SSW 20 26 11 14 1014.8 - -
22/03:30am 20.0 18.2 17.8 87 1.4 SSW 24 30 13 16 1014.7 - -
22/03:00am 20.3 17.6 17.5 84 1.7 SSW 28 33 15 18 1014.6 1014.5 -
22/02:30am 20.3 17.9 18.2 88 1.3 SW 28 33 15 18 1014.6 - -
22/02:00am 20.2 18.1 18.1 88 1.3 SSW 26 30 14 16 1014.9 - -
22/01:30am 20.5 19.2 19.0 91 0.9 SW 24 30 13 16 1014.9 - -
22/01:00am 20.0 20.9 18.3 90 1.1 SSW 11 11 6 6 1015.0 - -
22/12:30am 20.6 22.0 18.7 89 1.2 W 9 11 5 6 1015.2 - -
22/12:00am 20.5 21.0 18.4 88 1.3 W 13 13 7 7 1015.4 1015.3 -
 
Date/Time
WST
Temp
°C
App
Temp
°C
Dew
Point
Rel
Hum
%
Delta-T
°C
Wind Press
QNH
hPa
Press
MSL
hPa
Rain
since 9 am
mm
Dir
 
Spd
km/h
Gust
km/h
Spd
kts
Gust
kts
21/11:30pm 20.2 21.1 17.6 85 1.6 WNW 9 11 5 6 1015.6 - -
21/11:00pm 20.4 21.6 17.4 83 1.8 WNW 7 9 4 5 1015.7 - -
21/10:30pm 20.3 21.1 17.3 83 1.8 WNW 9 11 5 6 1015.8 - -
21/10:00pm 20.3 20.4 17.5 84 1.7 W 13 15 7 8 1015.9 - -
21/09:30pm 20.2 20.9 17.0 82 1.9 W 9 11 5 6 1016.0 - -
21/09:00pm 20.3 20.9 16.7 80 2.2 W 9 9 5 5 1016.2 1016.1 -
21/08:30pm 20.5 21.3 16.3 77 2.5 W 7 9 4 5 1016.1 - -
21/08:00pm 20.5 20.8 16.1 76 2.6 W 9 9 5 5 1016.0 - -
21/07:30pm 20.3 20.3 15.3 73 3.0 WNW 9 11 5 6 1015.8 - -
21/07:00pm 20.3 20.2 14.9 71 3.2 WNW 9 11 5 6 1015.4 - -
21/06:30pm 20.4 19.8 14.7 70 3.3 WNW 11 11 6 6 1015.0 - -
21/06:00pm 20.8 20.1 14.2 66 3.8 WNW 11 13 6 7 1014.7 1014.6 -
21/05:30pm 22.4 21.9 14.8 62 4.5 WNW 11 11 6 6 1014.5 - -
21/05:00pm 23.5 22.7 15.0 59 5.1 WNW 13 15 7 8 1014.6 - -
21/04:30pm 24.2 23.5 15.4 58 5.3 W 13 15 7 8 1014.5 - -
21/04:00pm 24.5 23.6 14.9 55 5.7 W 13 15 7 8 1014.3 - -
21/03:30pm 24.5 22.8 13.7 51 6.3 W 15 17 8 9 1014.4 - -
21/03:00pm 24.6 23.4 14.1 52 6.2 W 13 15 7 8 1014.3 1014.2 -
21/02:30pm 24.7 23.7 14.5 53 6.1 W 13 15 7 8 1014.4 - -
21/02:00pm 24.4 23.5 13.6 51 6.3 W 11 15 6 8 1014.5 - -
21/01:30pm 24.0 23.4 12.3 48 6.7 W 7 11 4 6 1014.7 - -
21/01:00pm 24.5 23.4 10.8 42 7.6 WSW 7 9 4 5 1015.1 - -
21/12:30pm 24.1 23.5 13.6 52 6.1 E 9 11 5 6 1015.4 - -
21/12:00pm 23.4 23.3 13.8 54 5.6 E 7 9 4 5 1015.7 1015.6 -
21/11:30am 23.0 22.5 13.8 56 5.4 E 9 11 5 6 1016.1 - -
21/11:00am 23.0 23.1 15.6 63 4.4 E 9 13 5 7 1016.6 - -
21/10:30am 22.7 23.2 16.5 68 3.8 SE 9 11 5 6 1016.8 - -
21/10:00am 22.2 22.4 15.8 67 3.8 SE 9 13 5 7 1017.0 - -
21/09:30am 21.3 21.9 16.7 75 2.8 SE 9 11 5 6 1016.9 - -
21/09:00am 20.1 20.9 18.2 89 1.2 S 11 15 6 8 1016.8 1016.7 -
21/08:30am 19.3 20.3 18.6 96 0.4 S 11 13 6 7 1016.7 - -
21/08:00am 19.1 20.1 18.6 97 0.3 S 11 13 6 7 1016.3 - -
21/07:30am 18.4 18.7 17.9 97 0.3 S 13 19 7 10 1016.0 - -
21/07:00am 17.7 16.6 17.2 97 0.3 S 19 22 10 12 1016.0 - -
21/06:30am 17.6 16.2 17.1 97 0.3 SSW 20 30 11 16 1015.5 - -
21/06:00am 17.8 15.3 17.2 96 0.4 SSW 26 33 14 18 1015.0 1014.9 -
21/05:30am 18.6 16.8 17.8 95 0.5 SSW 24 30 13 16 1014.6 - -
21/05:00am 18.6 16.0 17.8 95 0.5 SSW 28 32 15 17 1014.3 - -
21/04:30am 18.6 16.0 17.8 95 0.5 SSW 28 32 15 17 1014.1 - -
21/04:00am 18.5 16.2 17.7 95 0.5 S 26 30 14 16 1014.1 - -
21/03:30am 18.9 17.1 17.9 94 0.6 S 24 30 13 16 1014.0 - -
21/03:00am 19.3 18.2 17.8 91 0.9 S 20 26 11 14 1014.1 1014.0 -
21/02:30am 20.1 19.8 18.2 89 1.2 SW 17 19 9 10 1014.2 - -
21/02:00am 19.7 19.9 17.7 88 1.2 SW 13 15 7 8 1014.4 - -
21/01:30am 19.8 20.4 17.6 87 1.3 WSW 11 13 6 7 1014.5 - -
21/01:00am 19.7 20.1 17.3 86 1.5 WSW 11 13 6 7 1014.8 - -
21/12:30am 19.6 19.9 17.0 85 1.6 W 11 13 6 7 1015.0 - -
21/12:00am 19.6 19.9 17.0 85 1.6 W 11 13 6 7 1015.3 1015.2 -
 
Date/Time
WST
Temp
°C
App
Temp
°C
Dew
Point
Rel
Hum
%
Delta-T
°C
Wind Press
QNH
hPa
Press
MSL
hPa
Rain
since 9 am
mm
Dir
 
Spd
km/h
Gust
km/h
Spd
kts
Gust
kts
20/11:30pm 19.8 20.4 16.8 83 1.8 W 9 11 5 6 1015.4 - -
20/11:00pm 19.6 19.9 16.1 80 2.1 W 9 11 5 6 1015.5 - -
20/10:30pm 19.9 20.0 15.5 76 2.6 W 9 11 5 6 1015.6 - -
20/10:00pm 19.6 19.0 14.6 73 2.9 W 11 11 6 6 1015.7 - -
20/09:30pm 19.8 19.5 14.4 71 3.1 W 9 11 5 6 1015.9 - -
20/09:00pm 20.3 20.4 14.4 69 3.4 W 7 9 4 5 1016.0 1015.9 -
20/08:30pm 20.7 20.5 13.6 64 4.1 NW 7 7 4 4 1015.9 - -
20/08:00pm 20.5 20.5 13.7 65 3.9 NNW 6 7 3 4 1015.8 - -
20/07:30pm 20.3 19.6 12.0 59 4.6 NW 7 9 4 5 1015.5 - -
20/07:00pm 21.0 21.5 12.9 60 4.6 N 2 7 1 4 1015.1 - -
20/06:30pm 21.3 20.9 12.4 57 5.0 NW 6 7 3 4 1015.0 - -
20/06:00pm 21.2 20.6 11.8 55 5.2 NW 6 7 3 4 1014.8 1014.7 -
20/05:30pm 22.6 22.1 12.0 51 6.0 NW 6 7 3 4 1014.7 - -
20/05:00pm 23.7 22.8 11.4 46 6.9 NW 7 9 4 5 1014.6 - -
20/04:30pm 24.4 22.8 8.8 37 8.4 N 7 9 4 5 1014.6 - -
20/04:00pm 24.8 24.0 13.0 47 6.8 WNW 9 11 5 6 1014.4 - -
20/03:30pm 25.2 24.7 12.8 46 7.2 WNW 7 9 4 5 1014.4 - -
20/03:00pm 25.1 24.4 12.0 44 7.5 NW 7 11 4 6 1014.5 1014.4 -
20/02:30pm 24.5 23.6 12.5 47 6.9 NW 9 11 5 6 1014.7 - -
20/02:00pm 24.9 23.7 12.8 47 7.0 NW 11 13 6 7 1015.2 - -
20/01:30pm 24.6 23.4 12.9 48 6.8 NW 11 13 6 7 1015.6 - -
20/01:00pm 24.3 23.6 14.4 54 5.9 W 11 13 6 7 1016.0 - -
20/12:30pm 24.3 24.2 15.0 56 5.6 W 9 11 5 6 1016.5 - -
20/12:00pm 23.9 23.8 14.0 54 5.8 WSW 7 9 4 5 1016.8 1016.7 -
20/11:30am 23.9 23.8 13.4 51 6.1 W 6 9 3 5 1017.2 - -
20/11:00am 24.0 23.8 13.5 52 6.1 SSW 7 11 4 6 1017.4 - -
20/10:30am 23.3 23.1 13.5 54 5.7 SSE 7 11 4 6 1017.7 - -
20/10:00am 22.7 22.1 13.5 56 5.3 SSE 9 11 5 6 1017.8 - -
20/09:30am 22.2 22.2 15.1 64 4.2 SE 9 11 5 6 1017.9 - -
20/09:00am 21.8 21.7 14.9 65 4.1 ESE 9 11 5 6 1017.7 1017.6 -
20/08:30am 21.1 21.0 15.9 72 3.1 ESE 11 13 6 7 1017.3 - -
20/08:00am 20.1 20.1 17.1 83 1.8 ESE 13 15 7 8 1017.3 - -
20/07:30am 18.9 18.5 17.2 90 1.0 SSE 15 20 8 11 1016.9 - -
20/07:00am 18.4 18.3 16.9 91 0.9 SE 13 15 7 8 1016.6 - -
20/06:30am 18.2 18.0 16.7 91 0.9 SE 13 17 7 9 1016.4 - -
20/06:00am 18.5 18.7 16.8 90 1.0 SE 11 15 6 8 1016.1 1016.0 -
20/05:30am 18.3 18.7 16.3 88 1.2 SE 9 11 5 6 1015.7 - -
20/05:00am 18.3 18.6 15.9 86 1.4 S 9 11 5 6 1015.7 - -
20/04:30am 18.7 18.6 16.1 85 1.5 SSW 11 13 6 7 1015.6 - -
20/04:00am 18.9 18.5 16.1 84 1.7 SW 13 15 7 8 1015.3 - -
20/03:30am 19.0 18.5 16.0 83 1.8 SW 13 15 7 8 1015.3 - -
20/03:00am 19.4 19.0 16.1 81 2.0 SW 13 15 7 8 1015.2 1015.1 -
20/02:30am 19.8 18.5 15.7 77 2.4 SSW 17 19 9 10 1015.3 - -
20/02:00am 19.8 18.2 15.0 74 2.8 SW 17 19 9 10 1015.4 - -
20/01:30am 19.9 18.3 15.1 74 2.8 SW 17 19 9 10 1015.6 - -
20/01:00am 19.8 18.1 14.6 72 3.0 WSW 17 19 9 10 1015.9 - -
20/12:30am 19.9 18.3 14.9 73 2.9 WSW 17 19 9 10 1016.0 - -
20/12:00am 20.0 18.0 15.0 73 2.9 WSW 19 20 10 11 1016.3 1016.2 -
 
Date/Time
WST
Temp
°C
App
Temp
°C
Dew
Point
Rel
Hum
%
Delta-T
°C
Wind Press
QNH
hPa
Press
MSL
hPa
Rain
since 9 am
mm
Dir
 
Spd
km/h
Gust
km/h
Spd
kts
Gust
kts
19/11:30pm 20.2 18.4 15.4 74 2.8 WSW 19 20 10 11 1016.5 - -
19/11:00pm 20.3 18.4 15.3 73 3.0 WSW 19 20 10 11 1016.5 - -
19/10:30pm 20.5 18.7 15.5 73 3.0 W 19 20 10 11 1016.8 - -
19/10:00pm 20.6 19.1 15.2 71 3.2 W 17 17 9 9 1016.8 - -
19/09:30pm 20.4 18.5 14.3 68 3.5 WNW 17 19 9 10 1016.8 - -
19/09:00pm 20.4 18.3 13.6 65 3.9 WNW 17 17 9 9 1017.0 1016.9 -
19/08:30pm 20.5 18.4 13.5 64 4.0 NW 17 19 9 10 1017.0 - -
19/08:00pm 20.5 17.9 13.2 63 4.2 NW 19 20 10 11 1016.7 - -
19/07:30pm 20.0 17.8 13.2 65 3.9 NW 17 19 9 10 1016.5 - -
19/07:00pm 20.0 18.2 13.2 65 3.9 NW 15 17 8 9 1016.2 - -
19/06:30pm 19.7 17.9 12.2 62 4.2 NW 13 15 7 8 1016.0 - -
19/06:00pm 19.9 18.2 12.4 62 4.2 NW 13 15 7 8 1015.7 1015.6 -
19/05:30pm 21.7 20.1 11.4 52 5.7 NW 11 13 6 7 1015.7 - -
19/05:00pm 22.9 21.9 11.0 47 6.6 WNW 7 9 4 5 1015.8 - -
19/04:30pm 23.9 23.4 11.9 47 6.8 WSW 6 9 3 5 1015.9 - -
19/04:00pm 23.8 23.4 12.4 48 6.5 ESE 6 7 3 4 1015.9 - -

Other Formats:

Comma delimited format used in spreadsheet applications
http://www.bom.gov.au/fwo/IDW60801/IDW60801.94310.axf

JavaScript Object Notation format (JSON) in row-major order
http://www.bom.gov.au/fwo/IDW60801/IDW60801.94310.json